sensor_id;sensor_type;location;lat;lon;timestamp;pressure;altitude;pressure_sealevel;temperature;humidity
47785;BME280;35233;55.686;37.848;2022-11-03T00:02:09;99766.38;;;7.23;52.11
47785;BME280;35233;55.686;37.848;2022-11-03T00:04:35;99784.72;;;7.26;52.24
47785;BME280;35233;55.686;37.848;2022-11-03T00:07:00;99779.47;;;7.28;52.41
47785;BME280;35233;55.686;37.848;2022-11-03T00:09:26;99775.97;;;7.24;52.31
47785;BME280;35233;55.686;37.848;2022-11-03T00:11:51;99784.75;;;7.24;51.85
47785;BME280;35233;55.686;37.848;2022-11-03T00:14:17;99779.47;;;7.28;52.31
47785;BME280;35233;55.686;37.848;2022-11-03T00:16:43;99783.00;;;7.25;52.54
47785;BME280;35233;55.686;37.848;2022-11-03T00:19:10;99777.81;;;7.19;52.50
47785;BME280;35233;55.686;37.848;2022-11-03T00:21:37;99775.16;;;7.20;52.16
47785;BME280;35233;55.686;37.848;2022-11-03T00:24:03;99780.41;;;7.22;52.51
47785;BME280;35233;55.686;37.848;2022-11-03T00:26:31;99783.03;;;7.22;52.26
47785;BME280;35233;55.686;37.848;2022-11-03T00:28:58;99790.06;;;7.21;52.24
47785;BME280;35233;55.686;37.848;2022-11-03T00:31:29;99776.94;;;7.18;52.30
47785;BME280;35233;55.686;37.848;2022-11-03T00:33:55;99775.19;;;7.17;52.19
47785;BME280;35233;55.686;37.848;2022-11-03T00:36:26;99781.28;;;7.22;52.01
47785;BME280;35233;55.686;37.848;2022-11-03T00:38:52;99789.25;;;7.16;52.32
47785;BME280;35233;55.686;37.848;2022-11-03T00:41:19;99782.13;;;7.23;52.20
47785;BME280;35233;55.686;37.848;2022-11-03T00:43:45;99786.50;;;7.24;52.55
47785;BME280;35233;55.686;37.848;2022-11-03T00:46:11;99790.06;;;7.20;52.08
47785;BME280;35233;55.686;37.848;2022-11-03T00:48:37;99797.97;;;7.17;52.46
47785;BME280;35233;55.686;37.848;2022-11-03T00:53:42;99811.94;;;7.20;52.33
47785;BME280;35233;55.686;37.848;2022-11-03T00:56:11;99804.94;;;7.22;52.24
47785;BME280;35233;55.686;37.848;2022-11-03T00:58:38;99807.56;;;7.21;52.32
47785;BME280;35233;55.686;37.848;2022-11-03T01:01:13;99802.34;;;7.18;52.51
47785;BME280;35233;55.686;37.848;2022-11-03T01:03:41;99814.63;;;7.17;52.76
47785;BME280;35233;55.686;37.848;2022-11-03T01:06:27;99800.56;;;7.18;52.41
47785;BME280;35233;55.686;37.848;2022-11-03T01:09:12;99805.00;;;7.15;52.33
47785;BME280;35233;55.686;37.848;2022-11-03T01:11:37;99813.75;;;7.17;52.28
47785;BME280;35233;55.686;37.848;2022-11-03T01:14:14;99799.78;;;7.13;52.44
47785;BME280;35233;55.686;37.848;2022-11-03T01:16:40;99800.66;;;7.14;52.22
47785;BME280;35233;55.686;37.848;2022-11-03T01:19:06;99801.56;;;7.11;52.34
47785;BME280;35233;55.686;37.848;2022-11-03T01:21:32;99807.63;;;7.16;52.31
47785;BME280;35233;55.686;37.848;2022-11-03T01:24:01;99802.41;;;7.12;52.35
47785;BME280;35233;55.686;37.848;2022-11-03T01:26:27;99804.13;;;7.16;52.41
47785;BME280;35233;55.686;37.848;2022-11-03T01:28:53;99810.22;;;7.19;52.00
47785;BME280;35233;55.686;37.848;2022-11-03T01:31:20;99798.84;;;7.17;52.21
47785;BME280;35233;55.686;37.848;2022-11-03T01:33:49;99805.03;;;7.13;52.65
47785;BME280;35233;55.686;37.848;2022-11-03T01:36:15;99809.41;;;7.14;52.85
47785;BME280;35233;55.686;37.848;2022-11-03T01:38:41;99795.44;;;7.11;52.48
47785;BME280;35233;55.686;37.848;2022-11-03T01:41:10;99805.03;;;7.12;52.37
47785;BME280;35233;55.686;37.848;2022-11-03T01:43:38;99807.63;;;7.16;52.40
47785;BME280;35233;55.686;37.848;2022-11-03T01:48:42;99791.09;;;7.08;52.90
47785;BME280;35233;55.686;37.848;2022-11-03T01:51:10;99798.03;;;7.14;52.47
47785;BME280;35233;55.686;37.848;2022-11-03T01:53:39;99798.06;;;7.11;52.06
47785;BME280;35233;55.686;37.848;2022-11-03T01:56:08;99796.31;;;7.11;52.19
47785;BME280;35233;55.686;37.848;2022-11-03T01:58:37;99803.28;;;7.12;52.05
47785;BME280;35233;55.686;37.848;2022-11-03T02:01:04;99802.44;;;7.09;52.33
47785;BME280;35233;55.686;37.848;2022-11-03T02:03:39;99803.38;;;7.05;52.39
47785;BME280;35233;55.686;37.848;2022-11-03T02:06:07;99807.72;;;7.10;52.52
47785;BME280;35233;55.686;37.848;2022-11-03T02:08:52;99817.31;;;7.11;52.47
47785;BME280;35233;55.686;37.848;2022-11-03T02:11:18;99807.72;;;7.09;52.21
47785;BME280;35233;55.686;37.848;2022-11-03T02:14:03;99813.91;;;7.03;52.58
47785;BME280;35233;55.686;37.848;2022-11-03T02:16:30;99808.66;;;7.03;52.43
47785;BME280;35233;55.686;37.848;2022-11-03T02:18:58;99812.09;;;7.07;52.26
47785;BME280;35233;55.686;37.848;2022-11-03T02:21:29;99814.72;;;7.07;52.58
47785;BME280;35233;55.686;37.848;2022-11-03T02:24:06;99815.59;;;7.10;52.27
47785;BME280;35233;55.686;37.848;2022-11-03T02:26:34;99807.78;;;7.04;52.38
47785;BME280;35233;55.686;37.848;2022-11-03T02:29:00;99817.38;;;7.05;52.04
47785;BME280;35233;55.686;37.848;2022-11-03T02:31:37;99819.13;;;7.08;52.34
47785;BME280;35233;55.686;37.848;2022-11-03T02:34:13;99810.41;;;7.02;52.25
47785;BME280;35233;55.686;37.848;2022-11-03T02:36:49;99805.13;;;7.07;52.60
47785;BME280;35233;55.686;37.848;2022-11-03T02:41:56;99793.78;;;7.02;52.08
47785;BME280;35233;55.686;37.848;2022-11-03T02:44:24;99799.91;;;7.01;52.46
47785;BME280;35233;55.686;37.848;2022-11-03T02:46:55;99796.41;;;7.00;52.07
47785;BME280;35233;55.686;37.848;2022-11-03T02:49:22;99796.41;;;7.00;52.73
47785;BME280;35233;55.686;37.848;2022-11-03T02:51:48;99806.06;;;7.01;52.82
47785;BME280;35233;55.686;37.848;2022-11-03T02:56:49;99813.03;;;7.04;52.61
47785;BME280;35233;55.686;37.848;2022-11-03T02:59:25;99815.66;;;7.04;52.48
47785;BME280;35233;55.686;37.848;2022-11-03T03:02:05;99811.25;;;7.06;52.13
47785;BME280;35233;55.686;37.848;2022-11-03T03:04:37;99813.03;;;7.04;52.46
47785;BME280;35233;55.686;37.848;2022-11-03T03:07:14;99803.44;;;7.00;51.93
47785;BME280;35233;55.686;37.848;2022-11-03T03:10:12;99804.28;;;7.00;52.53
47785;BME280;35233;55.686;37.848;2022-11-03T03:12:51;99804.31;;;6.99;52.40
47785;BME280;35233;55.686;37.848;2022-11-03T03:16:09;99809.53;;;7.02;52.46
47785;BME280;35233;55.686;37.848;2022-11-03T03:18:19;99809.50;;;7.05;52.48
47785;BME280;35233;55.686;37.848;2022-11-03T03:20:53;99810.41;;;7.04;52.24
47785;BME280;35233;55.686;37.848;2022-11-03T03:23:30;99813.06;;;6.98;52.10
47785;BME280;35233;55.686;37.848;2022-11-03T03:26:24;99820.91;;;7.01;52.64
47785;BME280;35233;55.686;37.848;2022-11-03T03:29:23;99811.38;;;6.95;52.54
47785;BME280;35233;55.686;37.848;2022-11-03T03:31:55;99813.09;;;6.96;52.43
47785;BME280;35233;55.686;37.848;2022-11-03T03:34:24;99804.31;;;6.99;51.98
47785;BME280;35233;55.686;37.848;2022-11-03T03:36:51;99808.75;;;6.95;52.69
47785;BME280;35233;55.686;37.848;2022-11-03T03:39:21;99816.56;;;7.00;52.67
47785;BME280;35233;55.686;37.848;2022-11-03T03:41:48;99818.31;;;6.99;52.49
47785;BME280;35233;55.686;37.848;2022-11-03T03:44:15;99813.94;;;7.00;52.53
47785;BME280;35233;55.686;37.848;2022-11-03T03:46:44;99815.66;;;7.01;52.80
47785;BME280;35233;55.686;37.848;2022-11-03T03:49:12;99816.59;;;6.97;52.66
47785;BME280;35233;55.686;37.848;2022-11-03T03:51:40;99819.25;;;6.94;52.68
47785;BME280;35233;55.686;37.848;2022-11-03T03:54:05;99819.25;;;6.94;52.63
47785;BME280;35233;55.686;37.848;2022-11-03T03:58:56;99821.88;;;6.95;52.52
47785;BME280;35233;55.686;37.848;2022-11-03T04:01:22;99815.69;;;6.98;52.22
47785;BME280;35233;55.686;37.848;2022-11-03T04:03:47;99822.78;;;6.93;52.26
47785;BME280;35233;55.686;37.848;2022-11-03T04:06:13;99814.00;;;6.95;52.56
47785;BME280;35233;55.686;37.848;2022-11-03T04:08:38;99817.50;;;6.94;52.57
47785;BME280;35233;55.686;37.848;2022-11-03T04:11:04;99822.78;;;6.93;52.25
47785;BME280;35233;55.686;37.848;2022-11-03T04:13:48;99822.81;;;6.90;52.72
47785;BME280;35233;55.686;37.848;2022-11-03T04:16:32;99814.00;;;6.95;52.57
47785;BME280;35233;55.686;37.848;2022-11-03T04:19:15;99822.75;;;6.96;52.51
47785;BME280;35233;55.686;37.848;2022-11-03T04:21:59;99824.53;;;6.91;52.46
47785;BME280;35233;55.686;37.848;2022-11-03T04:24:48;99826.25;;;6.95;52.48
47785;BME280;35233;55.686;37.848;2022-11-03T04:29:43;99826.25;;;6.95;52.27
47785;BME280;35233;55.686;37.848;2022-11-03T04:32:15;99822.78;;;6.93;52.32
47785;BME280;35233;55.686;37.848;2022-11-03T04:34:41;99831.50;;;6.95;52.49
47785;BME280;35233;55.686;37.848;2022-11-03T04:37:13;99836.78;;;6.92;52.04
47785;BME280;35233;55.686;37.848;2022-11-03T04:39:39;99830.69;;;6.90;52.51
47785;BME280;35233;55.686;37.848;2022-11-03T04:42:21;99833.31;;;6.90;52.85
47785;BME280;35233;55.686;37.848;2022-11-03T04:44:47;99825.44;;;6.90;52.75
47785;BME280;35233;55.686;37.848;2022-11-03T04:47:15;99836.78;;;6.92;52.09
47785;BME280;35233;55.686;37.848;2022-11-03T04:49:42;99835.06;;;6.91;52.72
47785;BME280;35233;55.686;37.848;2022-11-03T04:52:18;99842.00;;;6.95;52.70
47785;BME280;35233;55.686;37.848;2022-11-03T04:54:46;99839.34;;;6.98;52.54
47785;BME280;35233;55.686;37.848;2022-11-03T04:57:13;99844.59;;;6.99;52.25
47785;BME280;35233;55.686;37.848;2022-11-03T04:59:40;99844.63;;;6.96;52.66
47785;BME280;35233;55.686;37.848;2022-11-03T05:02:14;99826.28;;;6.92;52.43
47785;BME280;35233;55.686;37.848;2022-11-03T05:04:41;99835.84;;;6.97;52.63
47785;BME280;35233;55.686;37.848;2022-11-03T05:07:28;99834.16;;;6.93;52.08
47785;BME280;35233;55.686;37.848;2022-11-03T05:09:55;99839.41;;;6.93;52.67
47785;BME280;35233;55.686;37.848;2022-11-03T05:12:21;99833.25;;;6.94;52.58
47785;BME280;35233;55.686;37.848;2022-11-03T05:14:47;99837.66;;;6.94;52.81
47785;BME280;35233;55.686;37.848;2022-11-03T05:17:25;99834.13;;;6.96;52.26
47785;BME280;35233;55.686;37.848;2022-11-03T05:19:56;99828.03;;;6.93;52.79
47785;BME280;35233;55.686;37.848;2022-11-03T05:22:23;99835.88;;;6.96;52.59
47785;BME280;35233;55.686;37.848;2022-11-03T05:24:55;99832.34;;;6.98;52.78
47785;BME280;35233;55.686;37.848;2022-11-03T05:27:22;99835.81;;;7.02;52.70
47785;BME280;35233;55.686;37.848;2022-11-03T05:29:49;99839.34;;;6.99;52.11
47785;BME280;35233;55.686;37.848;2022-11-03T05:32:22;99834.13;;;6.95;52.02
47785;BME280;35233;55.686;37.848;2022-11-03T05:34:53;99841.13;;;6.94;52.33
47785;BME280;35233;55.686;37.848;2022-11-03T05:37:32;99841.97;;;6.98;52.45
47785;BME280;35233;55.686;37.848;2022-11-03T05:39:59;99845.44;;;7.00;52.50
47785;BME280;35233;55.686;37.848;2022-11-03T05:42:36;99848.97;;;6.99;52.41
47785;BME280;35233;55.686;37.848;2022-11-03T05:45:14;99847.19;;;7.02;51.81
47785;BME280;35233;55.686;37.848;2022-11-03T05:47:43;99848.97;;;6.99;51.82
47785;BME280;35233;55.686;37.848;2022-11-03T05:50:23;99855.94;;;7.05;52.32
47785;BME280;35233;55.686;37.848;2022-11-03T05:52:52;99855.09;;;6.99;51.98
47785;BME280;35233;55.686;37.848;2022-11-03T05:57:47;99860.31;;;7.04;52.26
47785;BME280;35233;55.686;37.848;2022-11-03T06:00:39;99855.03;;;7.06;51.91
47785;BME280;35233;55.686;37.848;2022-11-03T06:03:06;99846.31;;;7.02;51.40
47785;BME280;35233;55.686;37.848;2022-11-03T06:05:32;99843.69;;;7.00;51.20
47785;BME280;35233;55.686;37.848;2022-11-03T06:08:12;99859.41;;;7.05;51.79
47785;BME280;35233;55.686;37.848;2022-11-03T06:10:44;99848.03;;;7.03;51.38
47785;BME280;35233;55.686;37.848;2022-11-03T06:13:15;99862.94;;;7.04;51.38
47785;BME280;35233;55.686;37.848;2022-11-03T06:15:44;99859.41;;;7.03;52.13
47785;BME280;35233;55.686;37.848;2022-11-03T06:18:15;99857.72;;;6.98;51.56
47785;BME280;35233;55.686;37.848;2022-11-03T06:20:48;99861.19;;;7.03;51.72
47785;BME280;35233;55.686;37.848;2022-11-03T06:23:14;99869.88;;;7.07;51.52
47785;BME280;35233;55.686;37.848;2022-11-03T06:25:42;99866.41;;;7.06;51.69
47785;BME280;35233;55.686;37.848;2022-11-03T06:28:17;99868.16;;;7.07;51.78
47785;BME280;35233;55.686;37.848;2022-11-03T06:30:44;99864.59;;;7.10;51.31
47785;BME280;35233;55.686;37.848;2022-11-03T06:33:33;99851.47;;;7.10;51.28
47785;BME280;35233;55.686;37.848;2022-11-03T06:36:12;99860.22;;;7.13;51.59
47785;BME280;35233;55.686;37.848;2022-11-03T06:38:40;99867.19;;;7.16;51.38
47785;BME280;35233;55.686;37.848;2022-11-03T06:41:17;99860.19;;;7.16;52.17
47785;BME280;35233;55.686;37.848;2022-11-03T06:43:44;99856.63;;;7.20;51.48
47785;BME280;35233;55.686;37.848;2022-11-03T06:48:43;99860.13;;;7.19;51.44
47785;BME280;35233;55.686;37.848;2022-11-03T06:51:22;99856.63;;;7.20;51.54
47785;BME280;35233;55.686;37.848;2022-11-03T06:53:50;99858.34;;;7.23;51.67
47785;BME280;35233;55.686;37.848;2022-11-03T06:56:21;99847.94;;;7.14;52.04
47785;BME280;35233;55.686;37.848;2022-11-03T06:58:49;99861.91;;;7.19;51.52
47785;BME280;35233;55.686;37.848;2022-11-03T07:01:20;99861.88;;;7.22;51.89
47785;BME280;35233;55.686;37.848;2022-11-03T07:03:48;99861.00;;;7.20;51.76
47785;BME280;35233;55.686;37.848;2022-11-03T07:06:20;99871.47;;;7.23;51.54
47785;BME280;35233;55.686;37.848;2022-11-03T07:09:03;99863.63;;;7.18;51.66
47785;BME280;35233;55.686;37.848;2022-11-03T07:11:34;99854.03;;;7.17;51.44
47785;BME280;35233;55.686;37.848;2022-11-03T07:14:18;99849.66;;;7.16;51.79
47785;BME280;35233;55.686;37.848;2022-11-03T07:16:54;99872.34;;;7.25;51.79
47785;BME280;35233;55.686;37.848;2022-11-03T07:24:26;99874.84;;;7.34;51.45
47785;BME280;35233;55.686;37.848;2022-11-03T07:27:00;99868.78;;;7.31;51.35
47785;BME280;35233;55.686;37.848;2022-11-03T07:29:28;99874.91;;;7.30;51.58
47785;BME280;35233;55.686;37.848;2022-11-03T07:31:56;99873.16;;;7.29;51.54
47785;BME280;35233;55.686;37.848;2022-11-03T07:34:26;99874.00;;;7.32;51.16
47785;BME280;35233;55.686;37.848;2022-11-03T07:36:56;99865.25;;;7.33;51.17
47785;BME280;35233;55.686;37.848;2022-11-03T07:39:22;99860.97;;;7.23;51.46
47785;BME280;35233;55.686;37.848;2022-11-03T07:41:48;99877.44;;;7.36;51.35
47785;BME280;35233;55.686;37.848;2022-11-03T07:44:19;99873.09;;;7.35;51.32
47785;BME280;35233;55.686;37.848;2022-11-03T07:46:48;99876.47;;;7.46;51.39
47785;BME280;35233;55.686;37.848;2022-11-03T07:49:25;99879.91;;;7.49;50.97
47785;BME280;35233;55.686;37.848;2022-11-03T07:51:51;99884.31;;;7.47;50.50
47785;BME280;35233;55.686;37.848;2022-11-03T07:57:04;99881.81;;;7.40;51.05
47785;BME280;35233;55.686;37.848;2022-11-03T07:59:44;99875.69;;;7.39;51.29
47785;BME280;35233;55.686;37.848;2022-11-03T08:02:33;99878.28;;;7.42;50.73
47785;BME280;35233;55.686;37.848;2022-11-03T08:05:00;99875.63;;;7.42;51.02
47785;BME280;35233;55.686;37.848;2022-11-03T08:07:26;99884.44;;;7.40;50.87
47785;BME280;35233;55.686;37.848;2022-11-03T08:09:52;99880.81;;;7.47;51.17
47785;BME280;35233;55.686;37.848;2022-11-03T08:12:19;99879.13;;;7.41;51.16
47785;BME280;35233;55.686;37.848;2022-11-03T08:14:44;99876.50;;;7.41;51.14
47785;BME280;35233;55.686;37.848;2022-11-03T08:17:10;99883.41;;;7.52;51.15
47785;BME280;35233;55.686;37.848;2022-11-03T08:19:35;99866.81;;;7.46;50.74
47785;BME280;35233;55.686;37.848;2022-11-03T08:22:01;99875.56;;;7.47;50.77
47785;BME280;35233;55.686;37.848;2022-11-03T08:24:26;99878.09;;;7.56;50.78
47785;BME280;35233;55.686;37.848;2022-11-03T08:26:52;99874.66;;;7.51;50.85
47785;BME280;35233;55.686;37.848;2022-11-03T08:29:17;99878.97;;;7.55;51.09
47785;BME280;35233;55.686;37.848;2022-11-03T08:31:43;99872.00;;;7.54;51.11
47785;BME280;35233;55.686;37.848;2022-11-03T08:34:09;99871.06;;;7.58;50.72
47785;BME280;35233;55.686;37.848;2022-11-03T08:36:35;99871.88;;;7.62;50.48
47785;BME280;35233;55.686;37.848;2022-11-03T08:39:01;99866.63;;;7.62;50.28
47785;BME280;35233;55.686;37.848;2022-11-03T08:41:27;99872.81;;;7.59;50.63
47785;BME280;35233;55.686;37.848;2022-11-03T08:43:52;99880.66;;;7.61;50.51
47785;BME280;35233;55.686;37.848;2022-11-03T08:46:18;99877.19;;;7.59;50.90
47785;BME280;35233;55.686;37.848;2022-11-03T08:48:44;99875.44;;;7.59;50.88
47785;BME280;35233;55.686;37.848;2022-11-03T08:51:09;99880.59;;;7.68;51.04
47785;BME280;35233;55.686;37.848;2022-11-03T08:53:38;99869.19;;;7.66;50.75
47785;BME280;35233;55.686;37.848;2022-11-03T08:56:04;99877.09;;;7.66;51.24
47785;BME280;35233;55.686;37.848;2022-11-03T08:58:30;99877.13;;;7.63;51.25
47785;BME280;35233;55.686;37.848;2022-11-03T09:00:56;99879.72;;;7.66;50.80
47785;BME280;35233;55.686;37.848;2022-11-03T09:03:21;99869.19;;;7.66;51.03
47785;BME280;35233;55.686;37.848;2022-11-03T09:05:47;99873.56;;;7.67;50.84
47785;BME280;35233;55.686;37.848;2022-11-03T09:08:12;99870.94;;;7.69;50.42
47785;BME280;35233;55.686;37.848;2022-11-03T09:10:38;99868.25;;;7.70;50.74
47785;BME280;35233;55.686;37.848;2022-11-03T09:13:03;99865.63;;;7.70;50.86
47785;BME280;35233;55.686;37.848;2022-11-03T09:15:30;99863.84;;;7.74;50.67
47785;BME280;35233;55.686;37.848;2022-11-03T09:17:55;99856.97;;;7.65;50.75
47785;BME280;35233;55.686;37.848;2022-11-03T09:20:21;99866.44;;;7.77;50.44
47785;BME280;35233;55.686;37.848;2022-11-03T09:22:47;99866.44;;;7.77;50.24
47785;BME280;35233;55.686;37.848;2022-11-03T09:25:12;99869.06;;;7.76;50.92
47785;BME280;35233;55.686;37.848;2022-11-03T09:27:38;99871.66;;;7.79;50.91
47785;BME280;35233;55.686;37.848;2022-11-03T09:30:04;99860.28;;;7.78;50.60
47785;BME280;35233;55.686;37.848;2022-11-03T09:32:30;99863.84;;;7.74;50.64
47785;BME280;35233;55.686;37.848;2022-11-03T09:34:56;99862.00;;;7.79;50.56
47785;BME280;35233;55.686;37.848;2022-11-03T09:37:21;99861.97;;;7.82;50.27
47785;BME280;35233;55.686;37.848;2022-11-03T09:39:47;99859.34;;;7.82;50.55
47785;BME280;35233;55.686;37.848;2022-11-03T09:42:14;99861.97;;;7.84;50.46
47785;BME280;35233;55.686;37.848;2022-11-03T09:44:40;99857.56;;;7.86;50.53
47785;BME280;35233;55.686;37.848;2022-11-03T09:47:11;99862.81;;;7.86;50.78
47785;BME280;35233;55.686;37.848;2022-11-03T09:49:38;99863.59;;;7.91;50.51
47785;BME280;35233;55.686;37.848;2022-11-03T09:52:04;99854.97;;;7.81;50.39
47785;BME280;35233;55.686;37.848;2022-11-03T09:54:30;99854.88;;;7.87;50.72
47785;BME280;35233;55.686;37.848;2022-11-03T09:56:57;99852.22;;;7.90;50.63
47785;BME280;35233;55.686;37.848;2022-11-03T09:59:29;99856.66;;;7.88;50.75
47785;BME280;35233;55.686;37.848;2022-11-03T10:01:55;99859.28;;;7.88;50.57
47785;BME280;35233;55.686;37.848;2022-11-03T10:04:25;99851.31;;;7.93;50.62
47785;BME280;35233;55.686;37.848;2022-11-03T10:06:54;99863.59;;;7.91;50.89
47785;BME280;35233;55.686;37.848;2022-11-03T10:09:20;99861.88;;;7.90;50.49
47785;BME280;35233;55.686;37.848;2022-11-03T10:11:49;99864.50;;;7.90;50.85
47785;BME280;35233;55.686;37.848;2022-11-03T10:14:16;99867.13;;;7.91;50.55
47785;BME280;35233;55.686;37.848;2022-11-03T10:16:52;99860.13;;;7.89;50.49
47785;BME280;35233;55.686;37.848;2022-11-03T10:19:18;99861.81;;;7.93;50.27
47785;BME280;35233;55.686;37.848;2022-11-03T10:21:44;99854.84;;;7.92;50.68
47785;BME280;35233;55.686;37.848;2022-11-03T10:24:13;99860.06;;;7.95;50.72
47785;BME280;35233;55.686;37.848;2022-11-03T10:29:30;99857.50;;;7.87;50.92
47785;BME280;35233;55.686;37.848;2022-11-03T10:31:58;99855.75;;;7.89;50.26
47785;BME280;35233;55.686;37.848;2022-11-03T10:34:37;99862.72;;;7.90;50.69
47785;BME280;35233;55.686;37.848;2022-11-03T10:37:24;99859.22;;;7.91;50.60
47785;BME280;35233;55.686;37.848;2022-11-03T10:39:56;99862.72;;;7.92;50.68
47785;BME280;35233;55.686;37.848;2022-11-03T10:42:28;99866.19;;;7.96;50.72
47785;BME280;35233;55.686;37.848;2022-11-03T10:45:14;99856.59;;;7.90;50.82
47785;BME280;35233;55.686;37.848;2022-11-03T10:47:41;99849.56;;;7.92;50.85
47785;BME280;35233;55.686;37.848;2022-11-03T10:50:23;99857.38;;;7.97;50.60
47785;BME280;35233;55.686;37.848;2022-11-03T10:52:50;99860.06;;;7.95;50.89
47785;BME280;35233;55.686;37.848;2022-11-03T10:55:17;99856.56;;;7.94;51.06
47785;BME280;35233;55.686;37.848;2022-11-03T10:57:44;99853.00;;;7.97;51.09
47785;BME280;35233;55.686;37.848;2022-11-03T11:00:16;99862.69;;;7.93;50.53
47785;BME280;35233;55.686;37.848;2022-11-03T11:02:45;99852.22;;;7.92;50.77
47785;BME280;35233;55.686;37.848;2022-11-03T11:05:21;99842.69;;;7.82;50.76
47785;BME280;35233;55.686;37.848;2022-11-03T11:07:49;99859.25;;;7.90;51.03
47785;BME280;35233;55.686;37.848;2022-11-03T11:10:24;99850.50;;;7.88;50.85
47785;BME280;35233;55.686;37.848;2022-11-03T11:15:58;99858.41;;;7.86;51.02
47785;BME280;35233;55.686;37.848;2022-11-03T11:20:56;99861.97;;;7.84;51.25
47785;BME280;35233;55.686;37.848;2022-11-03T11:28:34;99856.69;;;7.84;51.33
47785;BME280;35233;55.686;37.848;2022-11-03T11:31:01;99855.84;;;7.82;51.12
47785;BME280;35233;55.686;37.848;2022-11-03T11:33:28;99864.63;;;7.81;50.94
47785;BME280;35233;55.686;37.848;2022-11-03T11:41:20;99851.56;;;7.75;51.41
47785;BME280;35233;55.686;37.848;2022-11-03T11:43:45;99856.75;;;7.81;51.09
47785;BME280;35233;55.686;37.848;2022-11-03T11:46:39;99852.38;;;7.80;51.15
47785;BME280;35233;55.686;37.848;2022-11-03T11:51:35;99856.78;;;7.78;51.28
47785;BME280;35233;55.686;37.848;2022-11-03T11:54:14;99864.72;;;7.75;51.30
47785;BME280;35233;55.686;37.848;2022-11-03T11:56:44;99861.22;;;7.72;51.37
47785;BME280;35233;55.686;37.848;2022-11-03T11:59:17;99858.59;;;7.74;51.38
47785;BME280;35233;55.686;37.848;2022-11-03T12:01:43;99863.84;;;7.72;51.44
47785;BME280;35233;55.686;37.848;2022-11-03T12:04:25;99863.03;;;7.69;51.54
47785;BME280;35233;55.686;37.848;2022-11-03T12:06:50;99863.84;;;7.72;51.83
47785;BME280;35233;55.686;37.848;2022-11-03T12:09:21;99863.84;;;7.72;51.69
47785;BME280;35233;55.686;37.848;2022-11-03T12:14:33;99856.97;;;7.65;51.87
47785;BME280;35233;55.686;37.848;2022-11-03T12:19:48;99870.88;;;7.70;51.58
47785;BME280;35233;55.686;37.848;2022-11-03T12:24:51;99863.00;;;7.70;52.02
47785;BME280;35233;55.686;37.848;2022-11-03T12:29:49;99866.53;;;7.71;52.28
47785;BME280;35233;55.686;37.848;2022-11-03T12:32:15;99865.63;;;7.70;51.72
47785;BME280;35233;55.686;37.848;2022-11-03T12:34:41;99864.75;;;7.70;51.91
47785;BME280;35233;55.686;37.848;2022-11-03T12:37:07;99867.38;;;7.71;52.08
47785;BME280;35233;55.686;37.848;2022-11-03T12:39:33;99862.16;;;7.68;51.98
47785;BME280;35233;55.686;37.848;2022-11-03T12:41:58;99863.94;;;7.68;52.00
47785;BME280;35233;55.686;37.848;2022-11-03T12:44:24;99865.63;;;7.70;52.08
47785;BME280;35233;55.686;37.848;2022-11-03T12:46:49;99864.81;;;7.68;52.04
47785;BME280;35233;55.686;37.848;2022-11-03T12:49:15;99862.19;;;7.67;52.43
47785;BME280;35233;55.686;37.848;2022-11-03T12:51:40;99863.94;;;7.66;52.19
47785;BME280;35233;55.686;37.848;2022-11-03T12:54:06;99869.19;;;7.66;52.37
47785;BME280;35233;55.686;37.848;2022-11-03T12:56:31;99867.44;;;7.67;52.44
47785;BME280;35233;55.686;37.848;2022-11-03T12:58:57;99868.38;;;7.63;51.85
47785;BME280;35233;55.686;37.848;2022-11-03T13:01:22;99868.44;;;7.58;52.10
47785;BME280;35233;55.686;37.848;2022-11-03T13:03:48;99867.53;;;7.61;52.31
47785;BME280;35233;55.686;37.848;2022-11-03T13:06:13;99870.19;;;7.59;51.87
47785;BME280;35233;55.686;37.848;2022-11-03T13:08:39;99863.19;;;7.57;52.40
47785;BME280;35233;55.686;37.848;2022-11-03T13:11:05;99860.53;;;7.58;52.18
47785;BME280;35233;55.686;37.848;2022-11-03T13:13:51;99864.94;;;7.58;52.16
47785;BME280;35233;55.686;37.848;2022-11-03T13:16:17;99862.34;;;7.55;52.51
47785;BME280;35233;55.686;37.848;2022-11-03T13:18:42;99865.84;;;7.55;52.45
47785;BME280;35233;55.686;37.848;2022-11-03T13:21:08;99866.75;;;7.54;52.54
47785;BME280;35233;55.686;37.848;2022-11-03T13:23:34;99872.84;;;7.53;52.46
47785;BME280;35233;55.686;37.848;2022-11-03T13:25:59;99869.38;;;7.54;52.28
47785;BME280;35233;55.686;37.848;2022-11-03T13:28:25;99863.28;;;7.47;52.12
47785;BME280;35233;55.686;37.848;2022-11-03T13:30:50;99869.41;;;7.51;52.03
47785;BME280;35233;55.686;37.848;2022-11-03T13:33:16;99878.97;;;7.55;52.19
47785;BME280;35233;55.686;37.848;2022-11-03T13:35:41;99871.22;;;7.46;52.30
47785;BME280;35233;55.686;37.848;2022-11-03T13:38:07;99879.97;;;7.46;52.48
47785;BME280;35233;55.686;37.848;2022-11-03T13:40:32;99874.75;;;7.45;52.18
47785;BME280;35233;55.686;37.848;2022-11-03T13:42:58;99877.38;;;7.45;52.47
47785;BME280;35233;55.686;37.848;2022-11-03T13:45:23;99886.13;;;7.45;52.22
47785;BME280;35233;55.686;37.848;2022-11-03T13:47:49;99889.63;;;7.44;52.00
47785;BME280;35233;55.686;37.848;2022-11-03T13:50:14;99892.25;;;7.46;52.27
47785;BME280;35233;55.686;37.848;2022-11-03T13:52:40;99889.56;;;7.49;52.24
47785;BME280;35233;55.686;37.848;2022-11-03T13:55:05;99886.13;;;7.45;52.27
47785;BME280;35233;55.686;37.848;2022-11-03T13:57:31;99887.03;;;7.43;52.26
47785;BME280;35233;55.686;37.848;2022-11-03T13:59:56;99881.75;;;7.43;52.35
47785;BME280;35233;55.686;37.848;2022-11-03T14:02:22;99887.84;;;7.46;52.16
47785;BME280;35233;55.686;37.848;2022-11-03T14:04:48;99890.44;;;7.51;52.61
47785;BME280;35233;55.686;37.848;2022-11-03T14:07:13;99886.03;;;7.50;52.31
47785;BME280;35233;55.686;37.848;2022-11-03T14:09:39;99888.78;;;7.42;52.29
47785;BME280;35233;55.686;37.848;2022-11-03T14:12:05;99885.25;;;7.45;52.37
47785;BME280;35233;55.686;37.848;2022-11-03T14:14:49;99893.09;;;7.48;52.55